sensor_id;sensor_type;location;lat;lon;timestamp;temperature;humidity
28654;DHT22;24320;56.980;24.336;2023-04-03T00:01:09;-1.10;99.90
28654;DHT22;24320;56.980;24.336;2023-04-03T00:03:37;-1.10;99.90
28654;DHT22;24320;56.980;24.336;2023-04-03T00:06:04;-1.20;99.90
28654;DHT22;24320;56.980;24.336;2023-04-03T00:08:33;-1.20;99.90
28654;DHT22;24320;56.980;24.336;2023-04-03T00:11:01;-1.20;99.90
28654;DHT22;24320;56.980;24.336;2023-04-03T00:13:28;-1.20;99.90
28654;DHT22;24320;56.980;24.336;2023-04-03T00:15:56;-1.20;99.90
28654;DHT22;24320;56.980;24.336;2023-04-03T00:18:22;-1.20;99.90
28654;DHT22;24320;56.980;24.336;2023-04-03T00:20:50;-1.20;99.90
28654;DHT22;24320;56.980;24.336;2023-04-03T00:23:17;-1.20;99.90
28654;DHT22;24320;56.980;24.336;2023-04-03T00:25:44;-1.20;99.90
28654;DHT22;24320;56.980;24.336;2023-04-03T00:28:11;-1.30;99.90
28654;DHT22;24320;56.980;24.336;2023-04-03T00:30:38;-1.30;99.90
28654;DHT22;24320;56.980;24.336;2023-04-03T00:33:05;-1.30;99.90
28654;DHT22;24320;56.980;24.336;2023-04-03T00:35:34;-1.20;99.90
28654;DHT22;24320;56.980;24.336;2023-04-03T00:38:02;-1.20;99.90
28654;DHT22;24320;56.980;24.336;2023-04-03T00:40:41;-1.30;99.90
28654;DHT22;24320;56.980;24.336;2023-04-03T00:45:44;-1.30;99.90
28654;DHT22;24320;56.980;24.336;2023-04-03T00:48:17;-1.40;99.90
28654;DHT22;24320;56.980;24.336;2023-04-03T00:50:45;-1.40;99.90
28654;DHT22;24320;56.980;24.336;2023-04-03T00:53:23;-1.40;99.90
28654;DHT22;24320;56.980;24.336;2023-04-03T00:55:53;-1.40;99.90
28654;DHT22;24320;56.980;24.336;2023-04-03T00:59:00;-1.40;99.90
28654;DHT22;24320;56.980;24.336;2023-04-03T01:01:22;-1.40;99.90
28654;DHT22;24320;56.980;24.336;2023-04-03T01:03:50;-1.40;99.90
28654;DHT22;24320;56.980;24.336;2023-04-03T01:06:21;-1.40;99.90
28654;DHT22;24320;56.980;24.336;2023-04-03T01:08:50;-1.40;99.90
28654;DHT22;24320;56.980;24.336;2023-04-03T01:11:17;-1.40;99.90
28654;DHT22;24320;56.980;24.336;2023-04-03T01:13:45;-1.40;99.90
28654;DHT22;24320;56.980;24.336;2023-04-03T01:16:12;-1.30;99.90
28654;DHT22;24320;56.980;24.336;2023-04-03T01:18:40;-1.30;99.90
28654;DHT22;24320;56.980;24.336;2023-04-03T01:26:31;-1.30;99.90
28654;DHT22;24320;56.980;24.336;2023-04-03T01:29:00;-1.40;99.90
28654;DHT22;24320;56.980;24.336;2023-04-03T01:34:03;-1.50;99.90
28654;DHT22;24320;56.980;24.336;2023-04-03T01:36:31;-1.50;99.90
28654;DHT22;24320;56.980;24.336;2023-04-03T01:38:59;-1.50;99.90
28654;DHT22;24320;56.980;24.336;2023-04-03T01:41:27;-1.50;99.90
28654;DHT22;24320;56.980;24.336;2023-04-03T01:43:54;-1.50;99.90
28654;DHT22;24320;56.980;24.336;2023-04-03T01:46:22;-1.50;99.90
28654;DHT22;24320;56.980;24.336;2023-04-03T01:48:50;-1.50;99.90
28654;DHT22;24320;56.980;24.336;2023-04-03T01:51:17;-1.40;99.90
28654;DHT22;24320;56.980;24.336;2023-04-03T01:53:44;-1.40;99.90
28654;DHT22;24320;56.980;24.336;2023-04-03T01:56:11;-1.40;99.90
28654;DHT22;24320;56.980;24.336;2023-04-03T01:58:39;-1.30;99.90
28654;DHT22;24320;56.980;24.336;2023-04-03T02:01:06;-1.30;99.90
28654;DHT22;24320;56.980;24.336;2023-04-03T02:03:33;-1.30;99.90
28654;DHT22;24320;56.980;24.336;2023-04-03T02:06:00;-1.30;99.90
28654;DHT22;24320;56.980;24.336;2023-04-03T02:08:27;-1.30;99.90
28654;DHT22;24320;56.980;24.336;2023-04-03T02:10:55;-1.30;99.90
28654;DHT22;24320;56.980;24.336;2023-04-03T02:13:22;-1.30;99.90
28654;DHT22;24320;56.980;24.336;2023-04-03T02:15:49;-1.30;99.90
28654;DHT22;24320;56.980;24.336;2023-04-03T02:18:17;-1.30;99.90
28654;DHT22;24320;56.980;24.336;2023-04-03T02:20:44;-1.40;99.90
28654;DHT22;24320;56.980;24.336;2023-04-03T02:23:11;-1.30;99.90
28654;DHT22;24320;56.980;24.336;2023-04-03T02:25:38;-1.30;99.90
28654;DHT22;24320;56.980;24.336;2023-04-03T02:28:05;-1.30;99.90
28654;DHT22;24320;56.980;24.336;2023-04-03T02:30:32;-1.30;99.90
28654;DHT22;24320;56.980;24.336;2023-04-03T02:33:00;-1.30;99.90
28654;DHT22;24320;56.980;24.336;2023-04-03T02:35:27;-1.20;99.90
28654;DHT22;24320;56.980;24.336;2023-04-03T02:37:54;-1.30;99.90
28654;DHT22;24320;56.980;24.336;2023-04-03T02:40:21;-1.30;99.90
28654;DHT22;24320;56.980;24.336;2023-04-03T02:42:48;-1.30;99.90
28654;DHT22;24320;56.980;24.336;2023-04-03T02:45:15;-1.30;99.90
28654;DHT22;24320;56.980;24.336;2023-04-03T02:47:42;-1.30;99.90
28654;DHT22;24320;56.980;24.336;2023-04-03T02:50:09;-1.30;99.90
28654;DHT22;24320;56.980;24.336;2023-04-03T02:52:36;-1.30;99.90
28654;DHT22;24320;56.980;24.336;2023-04-03T02:55:04;-1.30;99.90
28654;DHT22;24320;56.980;24.336;2023-04-03T02:57:31;-1.30;99.90
28654;DHT22;24320;56.980;24.336;2023-04-03T02:59:59;-1.30;99.90
28654;DHT22;24320;56.980;24.336;2023-04-03T03:02:26;-1.40;99.90
28654;DHT22;24320;56.980;24.336;2023-04-03T03:04:53;-1.30;99.90
28654;DHT22;24320;56.980;24.336;2023-04-03T03:07:20;-1.40;99.90
28654;DHT22;24320;56.980;24.336;2023-04-03T03:09:47;-1.40;99.90
28654;DHT22;24320;56.980;24.336;2023-04-03T03:12:14;-1.40;99.90
28654;DHT22;24320;56.980;24.336;2023-04-03T03:14:41;-1.50;99.90
28654;DHT22;24320;56.980;24.336;2023-04-03T03:17:09;-1.40;99.90
28654;DHT22;24320;56.980;24.336;2023-04-03T03:19:36;-1.50;99.90
28654;DHT22;24320;56.980;24.336;2023-04-03T03:22:03;-1.50;99.90
28654;DHT22;24320;56.980;24.336;2023-04-03T03:24:30;-1.40;99.90
28654;DHT22;24320;56.980;24.336;2023-04-03T03:26:57;-1.50;99.90
28654;DHT22;24320;56.980;24.336;2023-04-03T03:29:24;-1.50;99.90
28654;DHT22;24320;56.980;24.336;2023-04-03T03:31:52;-1.50;99.90
28654;DHT22;24320;56.980;24.336;2023-04-03T03:34:19;-1.50;99.90
28654;DHT22;24320;56.980;24.336;2023-04-03T03:36:46;-1.50;99.90
28654;DHT22;24320;56.980;24.336;2023-04-03T03:39:13;-1.50;99.90
28654;DHT22;24320;56.980;24.336;2023-04-03T03:41:40;-1.50;99.90
28654;DHT22;24320;56.980;24.336;2023-04-03T03:44:07;-1.50;99.90
28654;DHT22;24320;56.980;24.336;2023-04-03T03:46:34;-1.50;99.90
28654;DHT22;24320;56.980;24.336;2023-04-03T03:49:01;-1.50;99.90
28654;DHT22;24320;56.980;24.336;2023-04-03T03:51:35;-1.50;99.90
28654;DHT22;24320;56.980;24.336;2023-04-03T03:54:03;-1.40;99.90
28654;DHT22;24320;56.980;24.336;2023-04-03T03:56:31;-1.40;99.90
28654;DHT22;24320;56.980;24.336;2023-04-03T03:58:58;-1.50;99.90
28654;DHT22;24320;56.980;24.336;2023-04-03T04:01:25;-1.50;99.90
28654;DHT22;24320;56.980;24.336;2023-04-03T04:03:52;-1.50;99.90
28654;DHT22;24320;56.980;24.336;2023-04-03T04:06:20;-1.40;99.90
28654;DHT22;24320;56.980;24.336;2023-04-03T04:08:48;-1.40;99.90
28654;DHT22;24320;56.980;24.336;2023-04-03T04:11:15;-1.40;99.90
28654;DHT22;24320;56.980;24.336;2023-04-03T04:13:42;-1.40;99.90
28654;DHT22;24320;56.980;24.336;2023-04-03T04:16:09;-1.40;99.90
28654;DHT22;24320;56.980;24.336;2023-04-03T04:18:36;-1.40;99.90
28654;DHT22;24320;56.980;24.336;2023-04-03T04:21:03;-1.30;99.90
28654;DHT22;24320;56.980;24.336;2023-04-03T04:23:30;-1.30;99.90
28654;DHT22;24320;56.980;24.336;2023-04-03T04:25:57;-1.30;99.90
28654;DHT22;24320;56.980;24.336;2023-04-03T04:28:24;-1.20;99.90
28654;DHT22;24320;56.980;24.336;2023-04-03T04:30:51;-1.20;99.90
28654;DHT22;24320;56.980;24.336;2023-04-03T04:33:18;-1.20;99.90
28654;DHT22;24320;56.980;24.336;2023-04-03T04:35:47;-1.20;99.90
28654;DHT22;24320;56.980;24.336;2023-04-03T04:38:15;-1.10;99.90
28654;DHT22;24320;56.980;24.336;2023-04-03T04:40:42;-1.00;99.90
28654;DHT22;24320;56.980;24.336;2023-04-03T04:43:09;-1.00;99.90
28654;DHT22;24320;56.980;24.336;2023-04-03T04:45:37;-0.90;99.90
28654;DHT22;24320;56.980;24.336;2023-04-03T04:48:05;-0.90;99.90
28654;DHT22;24320;56.980;24.336;2023-04-03T04:50:32;-0.80;99.90
28654;DHT22;24320;56.980;24.336;2023-04-03T04:52:59;-0.60;99.90
28654;DHT22;24320;56.980;24.336;2023-04-03T04:55:26;-0.50;99.90
28654;DHT22;24320;56.980;24.336;2023-04-03T04:57:53;-0.40;99.90
28654;DHT22;24320;56.980;24.336;2023-04-03T05:00:20;-0.30;99.90
28654;DHT22;24320;56.980;24.336;2023-04-03T05:02:47;-0.30;99.90
28654;DHT22;24320;56.980;24.336;2023-04-03T05:05:15;0.00;99.90
28654;DHT22;24320;56.980;24.336;2023-04-03T05:07:42;0.40;99.90
28654;DHT22;24320;56.980;24.336;2023-04-03T05:10:09;1.00;99.90
28654;DHT22;24320;56.980;24.336;2023-04-03T05:12:37;1.60;99.90
28654;DHT22;24320;56.980;24.336;2023-04-03T05:15:04;2.10;99.90
28654;DHT22;24320;56.980;24.336;2023-04-03T05:17:31;2.50;99.90
28654;DHT22;24320;56.980;24.336;2023-04-03T05:19:58;2.80;99.90
28654;DHT22;24320;56.980;24.336;2023-04-03T05:22:25;3.10;99.90
28654;DHT22;24320;56.980;24.336;2023-04-03T05:24:52;3.30;99.90
28654;DHT22;24320;56.980;24.336;2023-04-03T05:27:19;3.50;99.90
28654;DHT22;24320;56.980;24.336;2023-04-03T05:29:46;4.10;99.90
28654;DHT22;24320;56.980;24.336;2023-04-03T05:32:13;4.50;99.90
28654;DHT22;24320;56.980;24.336;2023-04-03T05:34:41;4.60;99.90
28654;DHT22;24320;56.980;24.336;2023-04-03T05:37:08;4.30;99.90
28654;DHT22;24320;56.980;24.336;2023-04-03T05:39:35;3.90;99.90
28654;DHT22;24320;56.980;24.336;2023-04-03T05:42:02;4.00;99.90
28654;DHT22;24320;56.980;24.336;2023-04-03T05:44:29;3.90;99.90
28654;DHT22;24320;56.980;24.336;2023-04-03T05:46:56;4.00;99.90
28654;DHT22;24320;56.980;24.336;2023-04-03T05:49:23;4.10;99.90
28654;DHT22;24320;56.980;24.336;2023-04-03T05:51:50;4.20;99.90
28654;DHT22;24320;56.980;24.336;2023-04-03T05:54:29;4.10;99.90
28654;DHT22;24320;56.980;24.336;2023-04-03T05:56:57;4.40;99.90
28654;DHT22;24320;56.980;24.336;2023-04-03T05:59:24;4.50;99.90
28654;DHT22;24320;56.980;24.336;2023-04-03T06:01:51;4.50;99.90
28654;DHT22;24320;56.980;24.336;2023-04-03T06:04:18;4.70;99.90
28654;DHT22;24320;56.980;24.336;2023-04-03T06:06:54;4.80;99.90
28654;DHT22;24320;56.980;24.336;2023-04-03T06:09:25;4.80;99.90
28654;DHT22;24320;56.980;24.336;2023-04-03T06:11:52;4.40;99.90
28654;DHT22;24320;56.980;24.336;2023-04-03T06:14:19;4.30;99.90
28654;DHT22;24320;56.980;24.336;2023-04-03T06:16:47;4.30;99.90
28654;DHT22;24320;56.980;24.336;2023-04-03T06:19:14;3.90;99.90
28654;DHT22;24320;56.980;24.336;2023-04-03T06:21:41;3.50;99.90
28654;DHT22;24320;56.980;24.336;2023-04-03T06:24:10;3.50;99.90
28654;DHT22;24320;56.980;24.336;2023-04-03T06:26:39;3.50;99.90
28654;DHT22;24320;56.980;24.336;2023-04-03T06:29:06;3.40;99.90
28654;DHT22;24320;56.980;24.336;2023-04-03T06:31:34;3.40;99.90
28654;DHT22;24320;56.980;24.336;2023-04-03T06:34:03;3.60;99.90
28654;DHT22;24320;56.980;24.336;2023-04-03T06:36:34;3.70;99.90
28654;DHT22;24320;56.980;24.336;2023-04-03T06:39:02;3.90;99.90
28654;DHT22;24320;56.980;24.336;2023-04-03T06:41:30;4.30;99.90
28654;DHT22;24320;56.980;24.336;2023-04-03T06:43:57;4.40;99.70
28654;DHT22;24320;56.980;24.336;2023-04-03T06:46:26;4.40;99.90
28654;DHT22;24320;56.980;24.336;2023-04-03T06:48:54;4.60;98.60
28654;DHT22;24320;56.980;24.336;2023-04-03T06:51:24;4.70;98.40
28654;DHT22;24320;56.980;24.336;2023-04-03T06:53:56;4.50;97.50
28654;DHT22;24320;56.980;24.336;2023-04-03T06:56:24;4.40;98.10
28654;DHT22;24320;56.980;24.336;2023-04-03T06:58:52;4.40;97.30
28654;DHT22;24320;56.980;24.336;2023-04-03T07:01:21;4.50;97.60
28654;DHT22;24320;56.980;24.336;2023-04-03T07:03:48;4.80;97.30
28654;DHT22;24320;56.980;24.336;2023-04-03T07:06:17;4.80;96.20
28654;DHT22;24320;56.980;24.336;2023-04-03T07:08:45;5.00;95.80
28654;DHT22;24320;56.980;24.336;2023-04-03T07:11:13;5.50;96.00
28654;DHT22;24320;56.980;24.336;2023-04-03T07:13:40;5.70;95.90
28654;DHT22;24320;56.980;24.336;2023-04-03T07:16:07;5.60;95.50
28654;DHT22;24320;56.980;24.336;2023-04-03T07:18:35;5.30;94.40
28654;DHT22;24320;56.980;24.336;2023-04-03T07:21:03;5.20;95.50
28654;DHT22;24320;56.980;24.336;2023-04-03T07:23:30;5.00;95.60
28654;DHT22;24320;56.980;24.336;2023-04-03T07:25:58;5.00;95.50
28654;DHT22;24320;56.980;24.336;2023-04-03T07:28:25;5.00;94.90
28654;DHT22;24320;56.980;24.336;2023-04-03T07:31:06;5.00;95.70
28654;DHT22;24320;56.980;24.336;2023-04-03T07:33:36;5.10;95.00
28654;DHT22;24320;56.980;24.336;2023-04-03T07:36:04;5.10;94.70
28654;DHT22;24320;56.980;24.336;2023-04-03T07:41:15;5.40;95.10
28654;DHT22;24320;56.980;24.336;2023-04-03T07:43:44;5.10;94.10
28654;DHT22;24320;56.980;24.336;2023-04-03T07:46:12;4.30;94.60
28654;DHT22;24320;56.980;24.336;2023-04-03T07:48:39;4.00;95.60
28654;DHT22;24320;56.980;24.336;2023-04-03T07:51:06;4.10;96.20
28654;DHT22;24320;56.980;24.336;2023-04-03T07:53:33;4.10;95.70
28654;DHT22;24320;56.980;24.336;2023-04-03T07:56:00;4.20;96.60
28654;DHT22;24320;56.980;24.336;2023-04-03T07:58:29;4.60;96.60
28654;DHT22;24320;56.980;24.336;2023-04-03T08:00:57;4.70;96.30
28654;DHT22;24320;56.980;24.336;2023-04-03T08:03:24;4.60;94.90
28654;DHT22;24320;56.980;24.336;2023-04-03T08:05:51;4.50;96.10
28654;DHT22;24320;56.980;24.336;2023-04-03T08:08:22;4.50;96.00
28654;DHT22;24320;56.980;24.336;2023-04-03T08:10:53;4.00;96.40
28654;DHT22;24320;56.980;24.336;2023-04-03T08:13:21;3.70;97.60
28654;DHT22;24320;56.980;24.336;2023-04-03T08:15:49;3.40;98.20
28654;DHT22;24320;56.980;24.336;2023-04-03T08:18:16;3.20;98.60
28654;DHT22;24320;56.980;24.336;2023-04-03T08:20:44;3.10;98.20
28654;DHT22;24320;56.980;24.336;2023-04-03T08:23:11;3.10;98.90
28654;DHT22;24320;56.980;24.336;2023-04-03T08:25:42;3.30;99.20
28654;DHT22;24320;56.980;24.336;2023-04-03T08:28:10;3.40;98.50
28654;DHT22;24320;56.980;24.336;2023-04-03T08:30:41;3.30;98.10
28654;DHT22;24320;56.980;24.336;2023-04-03T08:33:09;3.20;98.10
28654;DHT22;24320;56.980;24.336;2023-04-03T08:35:41;3.10;98.30
28654;DHT22;24320;56.980;24.336;2023-04-03T08:38:09;3.10;98.10
28654;DHT22;24320;56.980;24.336;2023-04-03T08:40:37;3.10;98.60
28654;DHT22;24320;56.980;24.336;2023-04-03T08:45:52;3.30;99.50
28654;DHT22;24320;56.980;24.336;2023-04-03T08:48:33;3.20;99.80
28654;DHT22;24320;56.980;24.336;2023-04-03T08:51:08;3.10;99.60
28654;DHT22;24320;56.980;24.336;2023-04-03T08:53:40;3.20;99.90
28654;DHT22;24320;56.980;24.336;2023-04-03T08:56:10;3.30;99.90
28654;DHT22;24320;56.980;24.336;2023-04-03T09:01:27;3.60;99.00
28654;DHT22;24320;56.980;24.336;2023-04-03T09:03:56;3.50;99.10
28654;DHT22;24320;56.980;24.336;2023-04-03T09:06:27;3.40;99.90
28654;DHT22;24320;56.980;24.336;2023-04-03T09:12:03;3.50;99.80
28654;DHT22;24320;56.980;24.336;2023-04-03T09:17:15;3.60;99.60
28654;DHT22;24320;56.980;24.336;2023-04-03T09:22:44;3.10;99.90
28654;DHT22;24320;56.980;24.336;2023-04-03T09:25:25;3.30;99.90
28654;DHT22;24320;56.980;24.336;2023-04-03T09:27:53;3.50;99.90
28654;DHT22;24320;56.980;24.336;2023-04-03T09:30:22;3.60;99.60
28654;DHT22;24320;56.980;24.336;2023-04-03T09:32:53;3.40;99.90
28654;DHT22;24320;56.980;24.336;2023-04-03T09:35:28;3.40;99.90
28654;DHT22;24320;56.980;24.336;2023-04-03T09:41:07;3.40;99.90
28654;DHT22;24320;56.980;24.336;2023-04-03T09:43:37;3.30;99.90
28654;DHT22;24320;56.980;24.336;2023-04-03T09:48:59;2.90;99.90
28654;DHT22;24320;56.980;24.336;2023-04-03T09:51:35;2.70;99.90
28654;DHT22;24320;56.980;24.336;2023-04-03T09:54:33;2.80;99.90
28654;DHT22;24320;56.980;24.336;2023-04-03T09:57:13;3.10;99.90
28654;DHT22;24320;56.980;24.336;2023-04-03T09:59:59;3.20;99.90
28654;DHT22;24320;56.980;24.336;2023-04-03T10:02:38;3.20;99.90
28654;DHT22;24320;56.980;24.336;2023-04-03T10:10:47;2.90;99.90
28654;DHT22;24320;56.980;24.336;2023-04-03T10:13:19;2.90;99.90
28654;DHT22;24320;56.980;24.336;2023-04-03T10:18:49;3.30;99.90
28654;DHT22;24320;56.980;24.336;2023-04-03T10:21:40;3.70;99.90
28654;DHT22;24320;56.980;24.336;2023-04-03T10:24:23;3.70;99.90
28654;DHT22;24320;56.980;24.336;2023-04-03T10:27:13;3.50;99.90
28654;DHT22;24320;56.980;24.336;2023-04-03T10:30:08;3.20;99.90
28654;DHT22;24320;56.980;24.336;2023-04-03T10:49:36;3.30;99.90
28654;DHT22;24320;56.980;24.336;2023-04-03T10:57:40;4.10;99.90
28654;DHT22;24320;56.980;24.336;2023-04-03T11:00:16;4.50;99.80
28654;DHT22;24320;56.980;24.336;2023-04-03T11:02:56;4.50;99.00
28654;DHT22;24320;56.980;24.336;2023-04-03T11:07:55;4.30;98.50
28654;DHT22;24320;56.980;24.336;2023-04-03T11:10:42;4.40;99.60
28654;DHT22;24320;56.980;24.336;2023-04-03T11:13:19;4.70;98.10
28654;DHT22;24320;56.980;24.336;2023-04-03T11:15:47;4.60;97.80
28654;DHT22;24320;56.980;24.336;2023-04-03T11:18:30;4.50;99.30
28654;DHT22;24320;56.980;24.336;2023-04-03T11:21:04;4.60;98.90
28654;DHT22;24320;56.980;24.336;2023-04-03T11:23:36;4.70;98.50
28654;DHT22;24320;56.980;24.336;2023-04-03T11:26:21;4.80;97.40
28654;DHT22;24320;56.980;24.336;2023-04-03T11:28:53;4.70;96.70
28654;DHT22;24320;56.980;24.336;2023-04-03T11:34:33;4.10;97.50
28654;DHT22;24320;56.980;24.336;2023-04-03T11:40:00;4.10;98.20
28654;DHT22;24320;56.980;24.336;2023-04-03T11:42:34;4.10;98.20
28654;DHT22;24320;56.980;24.336;2023-04-03T11:50:41;4.00;98.10
28654;DHT22;24320;56.980;24.336;2023-04-03T11:58:25;4.00;98.20
28654;DHT22;24320;56.980;24.336;2023-04-03T12:03:30;4.20;98.30
28654;DHT22;24320;56.980;24.336;2023-04-03T12:08:44;4.20;97.10
28654;DHT22;24320;56.980;24.336;2023-04-03T12:29:38;4.50;97.40
28654;DHT22;24320;56.980;24.336;2023-04-03T12:35:16;4.00;98.30
28654;DHT22;24320;56.980;24.336;2023-04-03T12:43:37;3.50;98.30
28654;DHT22;24320;56.980;24.336;2023-04-03T12:48:50;3.40;98.90
28654;DHT22;24320;56.980;24.336;2023-04-03T12:51:42;3.40;99.00
28654;DHT22;24320;56.980;24.336;2023-04-03T12:54:35;3.50;99.30
28654;DHT22;24320;56.980;24.336;2023-04-03T12:57:32;3.50;99.60
28654;DHT22;24320;56.980;24.336;2023-04-03T12:59:59;3.50;99.90
28654;DHT22;24320;56.980;24.336;2023-04-03T13:02:32;3.40;99.90
28654;DHT22;24320;56.980;24.336;2023-04-03T13:05:07;3.30;99.90
28654;DHT22;24320;56.980;24.336;2023-04-03T13:07:37;3.20;99.90
28654;DHT22;24320;56.980;24.336;2023-04-03T13:13:09;2.90;99.90
28654;DHT22;24320;56.980;24.336;2023-04-03T13:15:47;3.00;99.90
28654;DHT22;24320;56.980;24.336;2023-04-03T13:18:31;3.00;99.90
28654;DHT22;24320;56.980;24.336;2023-04-03T13:21:20;3.20;99.90
28654;DHT22;24320;56.980;24.336;2023-04-03T13:23:52;3.30;99.90
28654;DHT22;24320;56.980;24.336;2023-04-03T13:26:33;3.40;99.90
28654;DHT22;24320;56.980;24.336;2023-04-03T13:29:05;3.40;99.90
28654;DHT22;24320;56.980;24.336;2023-04-03T13:31:37;3.30;99.90
28654;DHT22;24320;56.980;24.336;2023-04-03T13:34:18;3.00;99.90
28654;DHT22;24320;56.980;24.336;2023-04-03T13:39:25;2.80;99.90
28654;DHT22;24320;56.980;24.336;2023-04-03T13:41:55;2.80;99.90
28654;DHT22;24320;56.980;24.336;2023-04-03T13:46:50;2.80;99.90
28654;DHT22;24320;56.980;24.336;2023-04-03T13:51:49;2.60;99.90
28654;DHT22;24320;56.980;24.336;2023-04-03T13:54:35;2.60;99.90
28654;DHT22;24320;56.980;24.336;2023-04-03T13:57:13;2.70;99.90
28654;DHT22;24320;56.980;24.336;2023-04-03T13:59:41;2.70;99.90
28654;DHT22;24320;56.980;24.336;2023-04-03T14:02:22;2.80;99.90
28654;DHT22;24320;56.980;24.336;2023-04-03T14:04:54;2.60;99.90
28654;DHT22;24320;56.980;24.336;2023-04-03T14:07:25;2.40;99.90
28654;DHT22;24320;56.980;24.336;2023-04-03T14:09:53;2.10;99.90
28654;DHT22;24320;56.980;24.336;2023-04-03T14:12:37;1.90;99.90
28654;DHT22;24320;56.980;24.336;2023-04-03T14:17:44;1.60;99.90
28654;DHT22;24320;56.980;24.336;2023-04-03T14:20:17;1.60;99.90
28654;DHT22;24320;56.980;24.336;2023-04-03T14:22:44;1.60;99.90
28654;DHT22;24320;56.980;24.336;2023-04-03T14:25:11;1.70;99.90
28654;DHT22;24320;56.980;24.336;2023-04-03T14:27:41;1.70;99.90
28654;DHT22;24320;56.980;24.336;2023-04-03T14:30:14;1.60;99.90
28654;DHT22;24320;56.980;24.336;2023-04-03T14:32:42;1.70;99.90
28654;DHT22;24320;56.980;24.336;2023-04-03T14:35:09;1.60;99.90
28654;DHT22;24320;56.980;24.336;2023-04-03T14:37:36;1.50;99.90
28654;DHT22;24320;56.980;24.336;2023-04-03T14:40:04;1.50;99.90
28654;DHT22;24320;56.980;24.336;2023-04-03T14:42:35;1.60;99.90
28654;DHT22;24320;56.980;24.336;2023-04-03T14:45:06;1.70;99.90
28654;DHT22;24320;56.980;24.336;2023-04-03T14:47:44;1.70;99.90
28654;DHT22;24320;56.980;24.336;2023-04-03T14:50:22;1.70;99.90
28654;DHT22;24320;56.980;24.336;2023-04-03T14:52:52;1.60;99.90
28654;DHT22;24320;56.980;24.336;2023-04-03T14:55:23;1.40;99.90
28654;DHT22;24320;56.980;24.336;2023-04-03T14:57:51;1.30;99.90
28654;DHT22;24320;56.980;24.336;2023-04-03T15:00:20;1.30;99.90
28654;DHT22;24320;56.980;24.336;2023-04-03T15:02:48;1.30;99.90
28654;DHT22;24320;56.980;24.336;2023-04-03T15:05:16;1.40;99.90
28654;DHT22;24320;56.980;24.336;2023-04-03T15:07:50;1.60;99.90
28654;DHT22;24320;56.980;24.336;2023-04-03T15:10:28;1.70;99.90
28654;DHT22;24320;56.980;24.336;2023-04-03T15:12:56;1.60;99.90
28654;DHT22;24320;56.980;24.336;2023-04-03T15:15:24;1.60;99.90
28654;DHT22;24320;56.980;24.336;2023-04-03T15:17:54;1.50;99.90
28654;DHT22;24320;56.980;24.336;2023-04-03T15:20:24;1.40;99.90
28654;DHT22;24320;56.980;24.336;2023-04-03T15:22:52;1.30;99.90
28654;DHT22;24320;56.980;24.336;2023-04-03T15:25:19;1.20;99.90
28654;DHT22;24320;56.980;24.336;2023-04-03T15:27:47;1.10;99.90
28654;DHT22;24320;56.980;24.336;2023-04-03T15:30:17;1.10;99.90
28654;DHT22;24320;56.980;24.336;2023-04-03T15:32:45;1.00;99.90
28654;DHT22;24320;56.980;24.336;2023-04-03T15:35:12;1.10;99.90
28654;DHT22;24320;56.980;24.336;2023-04-03T15:37:39;1.10;99.90
28654;DHT22;24320;56.980;24.336;2023-04-03T15:40:07;1.10;99.90
28654;DHT22;24320;56.980;24.336;2023-04-03T15:42:34;1.10;99.90
28654;DHT22;24320;56.980;24.336;2023-04-03T15:45:01;1.00;99.90
28654;DHT22;24320;56.980;24.336;2023-04-03T15:47:29;1.00;99.90
28654;DHT22;24320;56.980;24.336;2023-04-03T15:49:56;1.00;99.90
28654;DHT22;24320;56.980;24.336;2023-04-03T15:52:23;0.90;99.90
28654;DHT22;24320;56.980;24.336;2023-04-03T15:54:50;0.90;99.90
28654;DHT22;24320;56.980;24.336;2023-04-03T15:57:17;0.80;99.90
28654;DHT22;24320;56.980;24.336;2023-04-03T15:59:44;0.70;99.90
28654;DHT22;24320;56.980;24.336;2023-04-03T16:02:12;0.60;99.90
28654;DHT22;24320;56.980;24.336;2023-04-03T16:04:40;0.60;99.90
28654;DHT22;24320;56.980;24.336;2023-04-03T16:07:07;0.50;99.90
28654;DHT22;24320;56.980;24.336;2023-04-03T16:09:35;0.50;99.90
28654;DHT22;24320;56.980;24.336;2023-04-03T16:12:03;0.50;99.90
28654;DHT22;24320;56.980;24.336;2023-04-03T16:14:30;0.40;99.90
28654;DHT22;24320;56.980;24.336;2023-04-03T16:16:58;0.40;99.90
28654;DHT22;24320;56.980;24.336;2023-04-03T16:19:25;0.40;99.90
28654;DHT22;24320;56.980;24.336;2023-04-03T16:21:54;0.40;99.90
28654;DHT22;24320;56.980;24.336;2023-04-03T16:24:21;0.30;99.90
28654;DHT22;24320;56.980;24.336;2023-04-03T16:26:48;0.30;99.90
28654;DHT22;24320;56.980;24.336;2023-04-03T16:29:15;0.20;99.90
28654;DHT22;24320;56.980;24.336;2023-04-03T16:31:42;0.20;99.90
28654;DHT22;24320;56.980;24.336;2023-04-03T16:34:10;0.20;99.90
28654;DHT22;24320;56.980;24.336;2023-04-03T16:36:37;0.20;99.90
28654;DHT22;24320;56.980;24.336;2023-04-03T16:39:05;0.20;99.90
28654;DHT22;24320;56.980;24.336;2023-04-03T16:41:32;0.20;99.90
28654;DHT22;24320;56.980;24.336;2023-04-03T16:43:58;0.10;99.90
28654;DHT22;24320;56.980;24.336;2023-04-03T16:46:26;0.10;99.90
28654;DHT22;24320;56.980;24.336;2023-04-03T16:48:53;0.10;99.90
28654;DHT22;24320;56.980;24.336;2023-04-03T16:51:20;0.00;99.90
28654;DHT22;24320;56.980;24.336;2023-04-03T16:53:47;-0.10;99.90
28654;DHT22;24320;56.980;24.336;2023-04-03T16:56:14;-0.10;99.90
28654;DHT22;24320;56.980;24.336;2023-04-03T16:58:41;-0.10;99.90
28654;DHT22;24320;56.980;24.336;2023-04-03T17:01:13;-0.20;99.90
28654;DHT22;24320;56.980;24.336;2023-04-03T17:03:40;-0.30;99.90
28654;DHT22;24320;56.980;24.336;2023-04-03T17:06:07;-0.40;99.90
28654;DHT22;24320;56.980;24.336;2023-04-03T17:08:42;-0.40;99.90
28654;DHT22;24320;56.980;24.336;2023-04-03T17:11:09;-0.40;99.90
28654;DHT22;24320;56.980;24.336;2023-04-03T17:13:36;-0.50;99.90
28654;DHT22;24320;56.980;24.336;2023-04-03T17:16:06;-0.50;99.90
28654;DHT22;24320;56.980;24.336;2023-04-03T17:18:34;-0.50;99.90
28654;DHT22;24320;56.980;24.336;2023-04-03T17:23:44;-0.60;99.90
28654;DHT22;24320;56.980;24.336;2023-04-03T17:26:12;-0.60;99.90
28654;DHT22;24320;56.980;24.336;2023-04-03T17:28:39;-0.60;99.90
28654;DHT22;24320;56.980;24.336;2023-04-03T17:31:10;-0.60;99.90
28654;DHT22;24320;56.980;24.336;2023-04-03T17:33:37;-0.60;99.90
28654;DHT22;24320;56.980;24.336;2023-04-03T17:36:04;-0.60;99.90
28654;DHT22;24320;56.980;24.336;2023-04-03T17:38:32;-0.60;99.90
28654;DHT22;24320;56.980;24.336;2023-04-03T17:41:01;-0.50;99.90
28654;DHT22;24320;56.980;24.336;2023-04-03T17:43:29;-0.50;99.90
28654;DHT22;24320;56.980;24.336;2023-04-03T17:46:01;-0.50;99.90
28654;DHT22;24320;56.980;24.336;2023-04-03T17:48:32;-0.50;99.90
28654;DHT22;24320;56.980;24.336;2023-04-03T17:51:07;-0.50;99.90
28654;DHT22;24320;56.980;24.336;2023-04-03T17:53:34;-0.50;99.90
28654;DHT22;24320;56.980;24.336;2023-04-03T17:56:22;-0.60;99.90